Time;durP1;ratioP1;P1;durP2;ratioP2;P2;SDS_P1;SDS_P2;PMS_P1;PMS_P2;Temp;Humidity;BMP_temperature;BMP_pressure;BME280_temperature;BME280_humidity;BME280_pressure;Samples;Min_cycle;Max_cycle;Signal;HPM_P1;HPM_P2
2022/06/10 00:05:01;;;;;;;;;;;25.30;38.00;;;;;;21261693;27;20350;-63
2022/06/10 00:15:03;;;;;;;;;;;25.20;38.20;;;;;;21261360;27;20014;-62
2022/06/10 00:25:06;;;;;;;;;;;24.90;38.90;;;;;;21260029;27;19969;-62
2022/06/10 00:35:08;;;;;;;;;;;24.80;38.90;;;;;;21263917;27;19930;-62
2022/06/10 00:45:28;;;;;;;;;;;24.60;39.30;;;;;;21260987;27;19930;-62
2022/06/10 00:55:30;;;;;;;;;;;24.50;39.40;;;;;;21256150;27;19924;-62
2022/06/10 01:05:32;;;;;;;;;;;24.50;39.60;;;;;;21257514;27;19946;-64
2022/06/10 01:15:37;;;;;;;;;;;24.30;39.80;;;;;;21257280;27;19934;-61
2022/06/10 01:25:38;;;;;;;;;;;24.20;40.20;;;;;;21254707;27;20064;-62
2022/06/10 01:35:41;;;;;;;;;;;24.00;40.60;;;;;;21254157;27;19980;-61
2022/06/10 01:45:55;;;;;;;;;;;23.90;40.90;;;;;;21255306;27;19967;-62
2022/06/10 01:56:09;;;;;;;;;;;23.70;41.30;;;;;;21253478;27;19942;-61
2022/06/10 02:06:27;;;;;;;;;;;23.60;41.60;;;;;;21253475;27;20367;-62
2022/06/10 02:16:36;;;;;;;;;;;23.60;42.00;;;;;;21250431;27;19924;-63
2022/06/10 02:26:38;;;;;;;;;;;23.50;42.00;;;;;;21250650;27;19927;-63
2022/06/10 02:37:19;;;;;;;;;;;23.40;42.40;;;;;;21249532;27;19923;-63
2022/06/10 02:47:40;;;;;;;;;;;23.30;42.90;;;;;;21249448;27;19966;-63
2022/06/10 03:08:04;;;;;;;;;;;22.70;44.70;;;;;;21247716;28;19975;-62
2022/06/10 03:18:28;;;;;;;;;;;22.60;44.60;;;;;;21252540;27;19924;-62
2022/06/10 03:28:42;;;;;;;;;;;22.40;45.10;;;;;;21266103;27;19923;-65
2022/06/10 03:38:48;;;;;;;;;;;22.40;45.10;;;;;;21246347;27;19924;-62
2022/06/10 03:48:50;;;;;;;;;;;22.20;45.10;;;;;;21263997;27;20295;-64
2022/06/10 03:58:52;;;;;;;;;;;22.20;43.90;;;;;;21262196;27;19923;-63
2022/06/10 04:09:02;;;;;;;;;;;22.20;43.90;;;;;;21260864;27;20006;-63
2022/06/10 04:19:03;;;;;;;;;;;22.20;42.70;;;;;;21260465;27;20371;-63
2022/06/10 04:29:05;;;;;;;;;;;22.30;42.10;;;;;;21259040;27;20011;-63
2022/06/10 04:39:07;;;;;;;;;;;22.40;41.30;;;;;;21258315;27;19930;-62
2022/06/10 04:49:12;;;;;;;;;;;22.40;40.50;;;;;;21257648;27;19930;-63
2022/06/10 04:59:14;;;;;;;;;;;22.50;40.00;;;;;;21257793;27;20283;-63
2022/06/10 05:09:16;;;;;;;;;;;22.60;39.40;;;;;;21256264;27;19931;-62
2022/06/10 05:19:18;;;;;;;;;;;22.60;39.10;;;;;;21255890;27;19923;-62
2022/06/10 05:29:19;;;;;;;;;;;22.70;38.40;;;;;;21254341;27;19923;-62
2022/06/10 05:39:21;;;;;;;;;;;22.70;38.10;;;;;;21235132;27;19931;-62
2022/06/10 05:49:23;;;;;;;;;;;22.80;38.00;;;;;;21253891;27;19963;-63
2022/06/10 05:59:29;;;;;;;;;;;22.90;38.00;;;;;;21253417;27;19934;-62
2022/06/10 06:09:30;;;;;;;;;;;23.00;37.90;;;;;;21233381;27;19930;-63
2022/06/10 06:19:33;;;;;;;;;;;23.10;38.40;;;;;;21250458;27;20382;-63
2022/06/10 06:29:34;;;;;;;;;;;23.20;38.00;;;;;;21249298;27;20259;-61
2022/06/10 06:39:36;;;;;;;;;;;23.20;37.50;;;;;;21247645;27;20004;-67
2022/06/10 06:49:37;;;;;;;;;;;23.80;38.20;;;;;;21248491;27;19971;-62
2022/06/10 06:59:39;;;;;;;;;;;25.00;36.00;;;;;;21247176;27;20022;-63
2022/06/10 07:09:40;;;;;;;;;;;25.90;34.00;;;;;;21245312;28;19947;-68
2022/06/10 07:19:42;;;;;;;;;;;26.20;33.10;;;;;;21246415;28;20436;-61
2022/06/10 07:29:44;;;;;;;;;;;26.70;32.60;;;;;;21246334;28;20011;-67
2022/06/10 07:39:46;;;;;;;;;;;26.90;31.20;;;;;;21246854;28;19924;-60
2022/06/10 07:49:48;;;;;;;;;;;27.40;31.30;;;;;;21247033;28;19929;-66
2022/06/10 07:59:51;;;;;;;;;;;27.70;31.20;;;;;;21246474;28;20320;-65
2022/06/10 08:09:52;;;;;;;;;;;28.20;31.00;;;;;;21213616;27;19924;-69
2022/06/10 08:19:54;;;;;;;;;;;28.60;30.50;;;;;;21200404;27;19928;-66
2022/06/10 08:29:56;;;;;;;;;;;28.80;29.80;;;;;;21174292;28;19931;-65
2022/06/10 08:40:00;;;;;;;;;;;29.00;29.40;;;;;;21174669;28;20204;-73
2022/06/10 08:50:17;;;;;;;;;;;29.10;29.00;;;;;;21156406;28;19924;-72
2022/06/10 09:00:26;;;;;;;;;;;29.10;29.20;;;;;;21172159;28;19968;-72
2022/06/10 09:10:35;;;;;;;;;;;29.50;28.90;;;;;;21172531;28;19923;-67
2022/06/10 09:20:46;;;;;;;;;;;29.60;29.20;;;;;;21169185;28;19923;-68
2022/06/10 09:30:48;;;;;;;;;;;30.10;28.30;;;;;;21170030;28;19931;-62
2022/06/10 09:40:59;;;;;;;;;;;30.30;28.30;;;;;;21184402;27;19923;-60
2022/06/10 09:51:01;;;;;;;;;;;30.50;28.00;;;;;;21167461;28;19924;-62
2022/06/10 10:01:11;;;;;;;;;;;30.60;27.60;;;;;;21243368;27;20025;-60
2022/06/10 10:11:22;;;;;;;;;;;30.90;27.50;;;;;;21248023;27;19931;-59
2022/06/10 10:21:33;;;;;;;;;;;31.70;26.50;;;;;;21188975;27;19923;-56
2022/06/10 10:31:38;;;;;;;;;;;31.20;26.00;;;;;;21218326;27;19985;-65
2022/06/10 10:41:43;;;;;;;;;;;31.40;25.90;;;;;;21247985;27;19927;-63
2022/06/10 10:51:46;;;;;;;;;;;31.40;25.10;;;;;;21246466;27;19928;-61
2022/06/10 11:01:49;;;;;;;;;;;31.50;23.70;;;;;;21246318;27;19923;-60
2022/06/10 11:11:51;;;;;;;;;;;;;;;;;;21246232;28;20435;-66
2022/06/10 11:21:54;;;;;;;;;;;;;;;;;;21245781;28;19976;-71
2022/06/10 11:32:04;;;;;;;;;;;31.80;21.80;;;;;;21246539;28;19988;-62
2022/06/10 11:42:09;;;;;;;;;;;31.50;20.10;;;;;;21255549;27;19924;-61
2022/06/10 11:52:26;;;;;;;;;;;31.90;21.40;;;;;;21262098;27;20321;-59
2022/06/10 12:02:38;;;;;;;;;;;32.30;21.20;;;;;;21279239;27;19914;-67
2022/06/10 12:12:42;;;;;;;;;;;32.30;19.30;;;;;;21326161;27;20003;-76
2022/06/10 12:22:43;;;;;;;;;;;32.80;19.00;;;;;;21282381;27;19930;-78
2022/06/10 12:32:48;;;;;;;;;;;32.30;19.30;;;;;;21273052;27;19935;-74
2022/06/10 12:42:51;;;;;;;;;;;32.50;19.60;;;;;;21266606;27;19923;-78
2022/06/10 12:52:58;;;;;;;;;;;32.60;18.50;;;;;;21262096;27;20350;-76
2022/06/10 13:03:00;;;;;;;;;;;;;;;;;;21264323;27;20295;-77
2022/06/10 13:13:13;;;;;;;;;;;34.00;18.30;;;;;;21280677;27;19978;-75
2022/06/10 13:23:15;;;;;;;;;;;;;;;;;;21265463;27;19927;-75
2022/06/10 13:33:18;;;;;;;;;;;34.60;18.00;;;;;;21266412;27;19923;-72
2022/06/10 13:43:31;;;;;;;;;;;33.60;18.80;;;;;;21256924;27;19927;-75
2022/06/10 13:53:38;;;;;;;;;;;33.60;18.80;;;;;;21253085;27;19942;-74
2022/06/10 14:03:45;;;;;;;;;;;34.20;18.40;;;;;;21252167;27;19983;-73
2022/06/10 14:13:52;;;;;;;;;;;33.70;18.90;;;;;;21251433;27;19939;-75
2022/06/10 14:23:54;;;;;;;;;;;;;;;;;;21251372;27;19934;-73
2022/06/10 14:33:57;;;;;;;;;;;34.40;19.20;;;;;;21250038;27;20034;-75
2022/06/10 14:43:59;;;;;;;;;;;;;;;;;;21249550;27;20339;-70
2022/06/10 14:54:07;;;;;;;;;;;34.40;20.10;;;;;;21249273;27;20020;-70
2022/06/10 15:04:10;;;;;;;;;;;35.30;20.20;;;;;;21264599;27;19927;-71
2022/06/10 15:14:13;;;;;;;;;;;34.60;20.70;;;;;;21254246;27;20428;-67
2022/06/10 15:24:20;;;;;;;;;;;34.60;20.90;;;;;;21266245;27;20375;-73
2022/06/10 15:34:23;;;;;;;;;;;34.40;20.90;;;;;;21263743;27;19930;-64
2022/06/10 15:44:29;;;;;;;;;;;34.40;21.20;;;;;;21264247;27;20276;-63
2022/06/10 15:57:06;;;;;;;;;;;34.00;20.80;;;;;;21262554;27;19923;-66
2022/06/10 16:04:59;;;;;;;;;;;34.10;21.00;;;;;;21262291;27;19950;-68
2022/06/10 16:15:01;;;;;;;;;;;34.30;20.90;;;;;;21264622;27;20391;-61
2022/06/10 16:25:03;;;;;;;;;;;34.30;20.70;;;;;;21261464;27;20299;-68
2022/06/10 16:35:05;;;;;;;;;;;34.40;20.80;;;;;;21260048;27;19971;-67
2022/06/10 16:45:14;;;;;;;;;;;34.30;20.90;;;;;;21260424;27;19927;-66
2022/06/10 16:55:16;;;;;;;;;;;34.20;20.70;;;;;;21258298;27;19924;-66
2022/06/10 17:05:24;;;;;;;;;;;34.30;20.70;;;;;;21258637;27;19923;-63
2022/06/10 17:15:30;;;;;;;;;;;34.10;21.00;;;;;;21257281;27;19927;-66
2022/06/10 17:25:36;;;;;;;;;;;34.20;21.10;;;;;;21255250;27;20363;-68
2022/06/10 17:35:38;;;;;;;;;;;34.10;21.10;;;;;;21253980;27;20268;-63
2022/06/10 17:45:40;;;;;;;;;;;34.00;21.30;;;;;;21255806;27;19968;-63
2022/06/10 17:55:42;;;;;;;;;;;34.00;21.60;;;;;;21252782;27;20275;-62
2022/06/10 18:05:46;;;;;;;;;;;33.90;21.50;;;;;;21251628;27;19924;-63
2022/06/10 18:15:49;;;;;;;;;;;33.80;21.60;;;;;;21250368;27;20006;-66
2022/06/10 18:25:51;;;;;;;;;;;33.70;21.60;;;;;;21249716;27;19975;-70
2022/06/10 18:35:54;;;;;;;;;;;33.70;21.90;;;;;;21248866;27;19966;-67
2022/06/10 18:46:00;;;;;;;;;;;33.60;21.90;;;;;;21248715;27;19927;-70
2022/06/10 18:56:02;;;;;;;;;;;33.40;22.00;;;;;;21264831;27;20246;-71
2022/06/10 19:06:05;;;;;;;;;;;33.30;22.00;;;;;;21248406;27;19924;-69
2022/06/10 19:16:11;;;;;;;;;;;33.30;22.40;;;;;;21248199;28;19924;-71
2022/06/10 19:26:13;;;;;;;;;;;33.20;22.50;;;;;;21248179;28;20385;-69
2022/06/10 19:36:23;;;;;;;;;;;32.90;22.70;;;;;;21247738;28;19924;-70
2022/06/10 19:46:26;;;;;;;;;;;32.70;23.30;;;;;;21246862;28;20029;-74
2022/06/10 19:56:34;;;;;;;;;;;32.40;23.30;;;;;;21247880;28;19974;-68
2022/06/10 20:06:37;;;;;;;;;;;32.20;23.60;;;;;;21261681;27;19985;-70
2022/06/10 20:16:40;;;;;;;;;;;31.90;24.00;;;;;;21264300;27;19927;-69
2022/06/10 20:26:41;;;;;;;;;;;31.60;24.70;;;;;;21263931;27;19924;-69
2022/06/10 20:36:43;;;;;;;;;;;31.40;25.00;;;;;;21262419;27;19923;-69
2022/06/10 20:46:47;;;;;;;;;;;31.20;25.80;;;;;;21262859;27;19962;-68
2022/06/10 20:56:48;;;;;;;;;;;31.00;26.50;;;;;;21258510;27;19923;-68
2022/06/10 21:17:17;;;;;;;;;;;30.50;28.00;;;;;;21257050;27;20299;-68
2022/06/10 21:27:20;;;;;;;;;;;30.30;28.10;;;;;;21256788;27;19923;-66
2022/06/10 21:37:22;;;;;;;;;;;30.10;28.80;;;;;;21255879;27;19924;-68
2022/06/10 21:47:28;;;;;;;;;;;29.80;29.40;;;;;;21256577;27;20018;-71
2022/06/10 21:57:33;;;;;;;;;;;29.30;29.40;;;;;;21271504;27;19923;-72
2022/06/10 22:07:34;;;;;;;;;;;29.10;29.50;;;;;;21264984;27;19976;-73
2022/06/10 22:17:37;;;;;;;;;;;28.70;29.90;;;;;;21254978;27;19927;-73
2022/06/10 22:27:38;;;;;;;;;;;28.50;29.90;;;;;;21252400;27;19931;-72
2022/06/10 22:37:42;;;;;;;;;;;28.10;30.20;;;;;;21251201;27;19953;-73
2022/06/10 22:47:45;;;;;;;;;;;27.80;30.40;;;;;;21254539;27;19924;-73
2022/06/10 22:57:47;;;;;;;;;;;27.70;30.70;;;;;;21251886;27;19979;-71
2022/06/10 23:07:49;;;;;;;;;;;27.60;30.70;;;;;;21252013;27;19931;-72
2022/06/10 23:17:52;;;;;;;;;;;27.50;31.00;;;;;;21248741;28;19976;-71
2022/06/10 23:27:55;;;;;;;;;;;27.30;31.10;;;;;;21248324;28;19923;-74
2022/06/10 23:37:58;;;;;;;;;;;27.10;31.30;;;;;;21257793;27;19929;-70
